Terminal Aerodrome Forecast
Issued by NWS

Home | Current Version | Previous Version | Text Only | Print | Product List | Glossary On
Versions: 1 2 3 4 5 6 7 8 9 10 11 12 13 14 15 16 17 18 19
000
FTUS46 KEKA 200537
TAFCEC
TAF
KCEC 200537Z 2006/2106 32010KT P6SM OVC015
     FM201300 34006KT 6SM BR SCT007 OVC015
     FM201900 34010G20KT P6SM BKN017
     FM210500 34008KT P6SM BKN013=

USA.gov is the U.S. government's official web portal to all federal, state and local government web resources and services.